sensor_id;sensor_type;location;lat;lon;timestamp;P1;durP1;ratioP1;P2;durP2;ratioP2
44137;SDS011;29800;55.942;37.314;2024-02-26T00:00:13;10.93;;;3.45;;
44137;SDS011;29800;55.942;37.314;2024-02-26T00:02:41;6.72;;;3.53;;
44137;SDS011;29800;55.942;37.314;2024-02-26T00:05:08;7.05;;;3.25;;
44137;SDS011;29800;55.942;37.314;2024-02-26T00:07:34;8.80;;;3.92;;
44137;SDS011;29800;55.942;37.314;2024-02-26T00:10:01;8.35;;;3.63;;
44137;SDS011;29800;55.942;37.314;2024-02-26T00:12:28;6.75;;;3.63;;
44137;SDS011;29800;55.942;37.314;2024-02-26T00:14:54;10.07;;;3.67;;
44137;SDS011;29800;55.942;37.314;2024-02-26T00:17:23;12.55;;;3.90;;
44137;SDS011;29800;55.942;37.314;2024-02-26T00:19:50;7.53;;;3.20;;
44137;SDS011;29800;55.942;37.314;2024-02-26T00:22:16;7.75;;;3.60;;
44137;SDS011;29800;55.942;37.314;2024-02-26T00:24:43;6.72;;;3.00;;
44137;SDS011;29800;55.942;37.314;2024-02-26T00:27:12;7.32;;;3.35;;
44137;SDS011;29800;55.942;37.314;2024-02-26T00:29:38;7.03;;;3.20;;
44137;SDS011;29800;55.942;37.314;2024-02-26T00:32:05;8.45;;;3.60;;
44137;SDS011;29800;55.942;37.314;2024-02-26T00:34:32;9.63;;;3.35;;
44137;SDS011;29800;55.942;37.314;2024-02-26T00:36:59;7.00;;;2.80;;
44137;SDS011;29800;55.942;37.314;2024-02-26T00:39:25;6.75;;;3.25;;
44137;SDS011;29800;55.942;37.314;2024-02-26T00:41:51;8.63;;;3.60;;
44137;SDS011;29800;55.942;37.314;2024-02-26T00:44:17;6.85;;;3.45;;
44137;SDS011;29800;55.942;37.314;2024-02-26T00:46:43;8.60;;;3.60;;
44137;SDS011;29800;55.942;37.314;2024-02-26T00:49:09;7.13;;;2.97;;
44137;SDS011;29800;55.942;37.314;2024-02-26T00:51:36;7.88;;;3.50;;
44137;SDS011;29800;55.942;37.314;2024-02-26T00:54:02;11.77;;;3.40;;
44137;SDS011;29800;55.942;37.314;2024-02-26T00:56:28;5.60;;;3.00;;
44137;SDS011;29800;55.942;37.314;2024-02-26T00:58:54;5.43;;;2.67;;
44137;SDS011;29800;55.942;37.314;2024-02-26T01:01:21;8.45;;;2.95;;
44137;SDS011;29800;55.942;37.314;2024-02-26T01:03:47;6.30;;;3.05;;
44137;SDS011;29800;55.942;37.314;2024-02-26T01:06:13;8.02;;;2.63;;
44137;SDS011;29800;55.942;37.314;2024-02-26T01:08:39;5.80;;;3.10;;
44137;SDS011;29800;55.942;37.314;2024-02-26T01:11:05;6.55;;;3.08;;
44137;SDS011;29800;55.942;37.314;2024-02-26T01:13:31;7.18;;;3.22;;
44137;SDS011;29800;55.942;37.314;2024-02-26T01:15:57;6.53;;;3.00;;
44137;SDS011;29800;55.942;37.314;2024-02-26T01:18:24;6.60;;;2.88;;
44137;SDS011;29800;55.942;37.314;2024-02-26T01:20:50;8.27;;;3.55;;
44137;SDS011;29800;55.942;37.314;2024-02-26T01:23:16;8.43;;;3.20;;
44137;SDS011;29800;55.942;37.314;2024-02-26T01:25:42;6.53;;;3.17;;
44137;SDS011;29800;55.942;37.314;2024-02-26T01:28:09;6.63;;;3.05;;
44137;SDS011;29800;55.942;37.314;2024-02-26T01:30:35;10.43;;;3.03;;
44137;SDS011;29800;55.942;37.314;2024-02-26T01:33:01;8.65;;;2.83;;
44137;SDS011;29800;55.942;37.314;2024-02-26T01:35:27;6.38;;;2.65;;
44137;SDS011;29800;55.942;37.314;2024-02-26T01:37:53;6.68;;;2.95;;
44137;SDS011;29800;55.942;37.314;2024-02-26T01:40:19;7.25;;;3.20;;
44137;SDS011;29800;55.942;37.314;2024-02-26T01:42:45;6.82;;;3.10;;
44137;SDS011;29800;55.942;37.314;2024-02-26T01:45:14;7.88;;;2.60;;
44137;SDS011;29800;55.942;37.314;2024-02-26T01:47:41;9.25;;;3.30;;
44137;SDS011;29800;55.942;37.314;2024-02-26T01:50:08;7.10;;;2.85;;
44137;SDS011;29800;55.942;37.314;2024-02-26T01:52:34;5.82;;;2.83;;
44137;SDS011;29800;55.942;37.314;2024-02-26T01:55:01;6.95;;;3.13;;
44137;SDS011;29800;55.942;37.314;2024-02-26T01:57:29;10.30;;;3.03;;
44137;SDS011;29800;55.942;37.314;2024-02-26T01:59:55;6.10;;;2.88;;
44137;SDS011;29800;55.942;37.314;2024-02-26T02:02:21;6.00;;;2.50;;
44137;SDS011;29800;55.942;37.314;2024-02-26T02:04:48;7.97;;;3.00;;
44137;SDS011;29800;55.942;37.314;2024-02-26T02:07:14;9.57;;;2.95;;
44137;SDS011;29800;55.942;37.314;2024-02-26T02:09:42;7.97;;;3.15;;
44137;SDS011;29800;55.942;37.314;2024-02-26T02:12:09;4.57;;;2.72;;
44137;SDS011;29800;55.942;37.314;2024-02-26T02:14:35;7.07;;;2.90;;
44137;SDS011;29800;55.942;37.314;2024-02-26T02:17:01;5.60;;;2.53;;
44137;SDS011;29800;55.942;37.314;2024-02-26T02:19:28;7.35;;;2.75;;
44137;SDS011;29800;55.942;37.314;2024-02-26T02:21:54;7.35;;;3.20;;
44137;SDS011;29800;55.942;37.314;2024-02-26T02:24:20;8.77;;;2.65;;
44137;SDS011;29800;55.942;37.314;2024-02-26T02:26:47;8.23;;;2.67;;
44137;SDS011;29800;55.942;37.314;2024-02-26T02:29:13;7.18;;;2.67;;
44137;SDS011;29800;55.942;37.314;2024-02-26T02:31:40;8.32;;;2.58;;
44137;SDS011;29800;55.942;37.314;2024-02-26T02:34:07;5.25;;;2.78;;
44137;SDS011;29800;55.942;37.314;2024-02-26T02:36:34;7.35;;;2.70;;
44137;SDS011;29800;55.942;37.314;2024-02-26T02:39:01;7.97;;;2.58;;
44137;SDS011;29800;55.942;37.314;2024-02-26T02:41:27;7.78;;;2.65;;
44137;SDS011;29800;55.942;37.314;2024-02-26T02:43:55;4.43;;;2.50;;
44137;SDS011;29800;55.942;37.314;2024-02-26T02:46:21;8.52;;;3.38;;
44137;SDS011;29800;55.942;37.314;2024-02-26T02:48:48;5.57;;;2.60;;
44137;SDS011;29800;55.942;37.314;2024-02-26T02:51:14;5.10;;;2.65;;
44137;SDS011;29800;55.942;37.314;2024-02-26T02:53:40;9.02;;;2.75;;
44137;SDS011;29800;55.942;37.314;2024-02-26T02:56:06;6.82;;;2.85;;
44137;SDS011;29800;55.942;37.314;2024-02-26T02:58:32;7.22;;;2.72;;
44137;SDS011;29800;55.942;37.314;2024-02-26T03:00:58;7.85;;;2.80;;
44137;SDS011;29800;55.942;37.314;2024-02-26T03:03:26;7.70;;;3.00;;
44137;SDS011;29800;55.942;37.314;2024-02-26T03:05:54;6.07;;;2.65;;
44137;SDS011;29800;55.942;37.314;2024-02-26T03:08:20;6.55;;;2.45;;
44137;SDS011;29800;55.942;37.314;2024-02-26T03:10:46;6.15;;;2.70;;
44137;SDS011;29800;55.942;37.314;2024-02-26T03:13:13;5.15;;;2.50;;
44137;SDS011;29800;55.942;37.314;2024-02-26T03:15:39;4.30;;;2.10;;
44137;SDS011;29800;55.942;37.314;2024-02-26T03:18:05;8.15;;;2.47;;
44137;SDS011;29800;55.942;37.314;2024-02-26T03:20:31;5.35;;;2.30;;
44137;SDS011;29800;55.942;37.314;2024-02-26T03:22:58;5.72;;;2.80;;
44137;SDS011;29800;55.942;37.314;2024-02-26T03:25:24;4.47;;;2.30;;
44137;SDS011;29800;55.942;37.314;2024-02-26T03:27:51;7.43;;;2.42;;
44137;SDS011;29800;55.942;37.314;2024-02-26T03:30:17;5.68;;;2.72;;
44137;SDS011;29800;55.942;37.314;2024-02-26T03:32:43;6.55;;;2.70;;
44137;SDS011;29800;55.942;37.314;2024-02-26T03:35:09;5.90;;;2.50;;
44137;SDS011;29800;55.942;37.314;2024-02-26T03:37:36;7.30;;;2.38;;
44137;SDS011;29800;55.942;37.314;2024-02-26T03:40:02;6.03;;;2.25;;
44137;SDS011;29800;55.942;37.314;2024-02-26T03:42:29;4.40;;;2.33;;
44137;SDS011;29800;55.942;37.314;2024-02-26T03:44:55;6.97;;;2.22;;
44137;SDS011;29800;55.942;37.314;2024-02-26T03:47:21;5.65;;;1.95;;
44137;SDS011;29800;55.942;37.314;2024-02-26T03:49:47;9.38;;;2.55;;
44137;SDS011;29800;55.942;37.314;2024-02-26T03:52:14;9.02;;;2.67;;
44137;SDS011;29800;55.942;37.314;2024-02-26T03:54:40;6.80;;;2.22;;
44137;SDS011;29800;55.942;37.314;2024-02-26T03:57:06;5.93;;;2.38;;
44137;SDS011;29800;55.942;37.314;2024-02-26T03:59:32;7.20;;;2.53;;
44137;SDS011;29800;55.942;37.314;2024-02-26T04:01:59;5.28;;;2.03;;
44137;SDS011;29800;55.942;37.314;2024-02-26T04:04:27;4.72;;;2.33;;
44137;SDS011;29800;55.942;37.314;2024-02-26T04:06:53;8.82;;;2.30;;
44137;SDS011;29800;55.942;37.314;2024-02-26T04:09:19;5.32;;;2.33;;
44137;SDS011;29800;55.942;37.314;2024-02-26T04:11:46;6.05;;;2.33;;
44137;SDS011;29800;55.942;37.314;2024-02-26T04:14:12;5.50;;;2.17;;
44137;SDS011;29800;55.942;37.314;2024-02-26T04:16:38;6.35;;;2.60;;
44137;SDS011;29800;55.942;37.314;2024-02-26T04:19:05;6.10;;;2.47;;
44137;SDS011;29800;55.942;37.314;2024-02-26T04:21:32;7.00;;;2.38;;
44137;SDS011;29800;55.942;37.314;2024-02-26T04:23:59;5.00;;;2.40;;
44137;SDS011;29800;55.942;37.314;2024-02-26T04:26:27;5.45;;;2.28;;
44137;SDS011;29800;55.942;37.314;2024-02-26T04:28:54;6.05;;;2.60;;
44137;SDS011;29800;55.942;37.314;2024-02-26T04:31:20;6.35;;;2.30;;
44137;SDS011;29800;55.942;37.314;2024-02-26T04:33:47;6.75;;;2.50;;
44137;SDS011;29800;55.942;37.314;2024-02-26T04:36:15;7.57;;;2.45;;
44137;SDS011;29800;55.942;37.314;2024-02-26T04:38:42;7.18;;;2.83;;
44137;SDS011;29800;55.942;37.314;2024-02-26T04:41:09;6.55;;;2.60;;
44137;SDS011;29800;55.942;37.314;2024-02-26T04:43:35;5.13;;;2.33;;
44137;SDS011;29800;55.942;37.314;2024-02-26T04:46:07;4.03;;;2.15;;
44137;SDS011;29800;55.942;37.314;2024-02-26T04:48:34;7.05;;;2.45;;
44137;SDS011;29800;55.942;37.314;2024-02-26T04:51:01;5.78;;;2.25;;
44137;SDS011;29800;55.942;37.314;2024-02-26T04:53:27;4.57;;;2.17;;
44137;SDS011;29800;55.942;37.314;2024-02-26T04:55:53;6.93;;;2.50;;
44137;SDS011;29800;55.942;37.314;2024-02-26T04:58:19;6.75;;;2.55;;
44137;SDS011;29800;55.942;37.314;2024-02-26T05:00:46;6.35;;;2.47;;
44137;SDS011;29800;55.942;37.314;2024-02-26T05:03:12;5.07;;;2.35;;
44137;SDS011;29800;55.942;37.314;2024-02-26T05:05:44;5.43;;;2.70;;
44137;SDS011;29800;55.942;37.314;2024-02-26T05:08:11;5.35;;;2.40;;
44137;SDS011;29800;55.942;37.314;2024-02-26T05:10:37;16.48;;;3.40;;
44137;SDS011;29800;55.942;37.314;2024-02-26T05:13:06;7.57;;;2.40;;
44137;SDS011;29800;55.942;37.314;2024-02-26T05:15:33;9.85;;;2.63;;
44137;SDS011;29800;55.942;37.314;2024-02-26T05:17:59;8.52;;;2.85;;
44137;SDS011;29800;55.942;37.314;2024-02-26T05:20:25;6.85;;;2.40;;
44137;SDS011;29800;55.942;37.314;2024-02-26T05:22:52;6.13;;;2.60;;
44137;SDS011;29800;55.942;37.314;2024-02-26T05:25:18;6.00;;;2.78;;
44137;SDS011;29800;55.942;37.314;2024-02-26T05:27:44;7.57;;;3.05;;
44137;SDS011;29800;55.942;37.314;2024-02-26T05:30:11;9.23;;;2.90;;
44137;SDS011;29800;55.942;37.314;2024-02-26T05:32:37;7.90;;;3.20;;
44137;SDS011;29800;55.942;37.314;2024-02-26T05:35:03;7.68;;;3.20;;
44137;SDS011;29800;55.942;37.314;2024-02-26T05:37:30;8.57;;;2.90;;
44137;SDS011;29800;55.942;37.314;2024-02-26T05:39:56;8.10;;;3.55;;
44137;SDS011;29800;55.942;37.314;2024-02-26T05:42:23;6.93;;;2.95;;
44137;SDS011;29800;55.942;37.314;2024-02-26T05:44:50;10.25;;;3.30;;
44137;SDS011;29800;55.942;37.314;2024-02-26T05:47:16;6.25;;;3.00;;
44137;SDS011;29800;55.942;37.314;2024-02-26T05:49:43;6.40;;;2.95;;
44137;SDS011;29800;55.942;37.314;2024-02-26T05:52:09;8.30;;;3.30;;
44137;SDS011;29800;55.942;37.314;2024-02-26T05:54:36;10.60;;;3.80;;
44137;SDS011;29800;55.942;37.314;2024-02-26T05:57:02;9.10;;;3.40;;
44137;SDS011;29800;55.942;37.314;2024-02-26T05:59:28;8.23;;;3.20;;
44137;SDS011;29800;55.942;37.314;2024-02-26T06:01:55;6.13;;;2.95;;
44137;SDS011;29800;55.942;37.314;2024-02-26T06:04:21;8.07;;;3.45;;
44137;SDS011;29800;55.942;37.314;2024-02-26T06:06:47;9.63;;;3.97;;
44137;SDS011;29800;55.942;37.314;2024-02-26T06:09:13;6.30;;;3.10;;
44137;SDS011;29800;55.942;37.314;2024-02-26T06:11:40;7.38;;;3.42;;
44137;SDS011;29800;55.942;37.314;2024-02-26T06:14:06;13.05;;;3.97;;
44137;SDS011;29800;55.942;37.314;2024-02-26T06:16:32;8.90;;;3.45;;
44137;SDS011;29800;55.942;37.314;2024-02-26T06:18:59;10.77;;;3.53;;
44137;SDS011;29800;55.942;37.314;2024-02-26T06:21:25;9.32;;;3.80;;
44137;SDS011;29800;55.942;37.314;2024-02-26T06:23:52;7.75;;;3.58;;
44137;SDS011;29800;55.942;37.314;2024-02-26T06:26:18;7.80;;;3.60;;
44137;SDS011;29800;55.942;37.314;2024-02-26T06:28:44;11.38;;;3.67;;
44137;SDS011;29800;55.942;37.314;2024-02-26T06:31:10;10.88;;;3.75;;
44137;SDS011;29800;55.942;37.314;2024-02-26T06:33:36;9.93;;;4.05;;
44137;SDS011;29800;55.942;37.314;2024-02-26T06:36:02;8.90;;;3.33;;
44137;SDS011;29800;55.942;37.314;2024-02-26T06:38:30;7.85;;;4.00;;
44137;SDS011;29800;55.942;37.314;2024-02-26T06:40:56;9.10;;;3.67;;
44137;SDS011;29800;55.942;37.314;2024-02-26T06:43:23;11.07;;;3.88;;
44137;SDS011;29800;55.942;37.314;2024-02-26T06:45:49;9.65;;;4.40;;
44137;SDS011;29800;55.942;37.314;2024-02-26T06:48:15;13.48;;;4.18;;
44137;SDS011;29800;55.942;37.314;2024-02-26T06:50:41;11.02;;;5.43;;
44137;SDS011;29800;55.942;37.314;2024-02-26T06:53:07;9.48;;;4.10;;
44137;SDS011;29800;55.942;37.314;2024-02-26T06:55:34;8.60;;;3.78;;
44137;SDS011;29800;55.942;37.314;2024-02-26T06:58:00;9.57;;;4.25;;
44137;SDS011;29800;55.942;37.314;2024-02-26T07:00:26;9.55;;;4.28;;
44137;SDS011;29800;55.942;37.314;2024-02-26T07:02:52;9.18;;;3.85;;
44137;SDS011;29800;55.942;37.314;2024-02-26T07:05:19;10.02;;;4.05;;
44137;SDS011;29800;55.942;37.314;2024-02-26T07:07:45;7.30;;;3.63;;
44137;SDS011;29800;55.942;37.314;2024-02-26T07:10:12;10.20;;;4.47;;
44137;SDS011;29800;55.942;37.314;2024-02-26T07:12:38;10.50;;;3.58;;
44137;SDS011;29800;55.942;37.314;2024-02-26T07:15:04;9.02;;;4.53;;
44137;SDS011;29800;55.942;37.314;2024-02-26T07:17:33;8.63;;;4.28;;
44137;SDS011;29800;55.942;37.314;2024-02-26T07:19:59;6.90;;;3.25;;
44137;SDS011;29800;55.942;37.314;2024-02-26T07:22:26;9.90;;;3.92;;
44137;SDS011;29800;55.942;37.314;2024-02-26T07:24:52;12.02;;;4.30;;
44137;SDS011;29800;55.942;37.314;2024-02-26T07:27:18;10.88;;;4.43;;
44137;SDS011;29800;55.942;37.314;2024-02-26T07:29:46;7.57;;;4.00;;
44137;SDS011;29800;55.942;37.314;2024-02-26T07:32:13;9.23;;;4.22;;
44137;SDS011;29800;55.942;37.314;2024-02-26T07:34:39;15.15;;;4.82;;
44137;SDS011;29800;55.942;37.314;2024-02-26T07:37:07;11.70;;;4.40;;
44137;SDS011;29800;55.942;37.314;2024-02-26T07:39:34;11.23;;;4.45;;
44137;SDS011;29800;55.942;37.314;2024-02-26T07:42:00;9.60;;;4.55;;
44137;SDS011;29800;55.942;37.314;2024-02-26T07:44:26;7.47;;;3.63;;
44137;SDS011;29800;55.942;37.314;2024-02-26T07:46:53;11.15;;;4.25;;
44137;SDS011;29800;55.942;37.314;2024-02-26T07:49:19;19.10;;;6.50;;
44137;SDS011;29800;55.942;37.314;2024-02-26T07:51:45;20.80;;;7.20;;
44137;SDS011;29800;55.942;37.314;2024-02-26T07:54:11;10.05;;;4.60;;
44137;SDS011;29800;55.942;37.314;2024-02-26T07:56:37;14.70;;;7.10;;
44137;SDS011;29800;55.942;37.314;2024-02-26T07:59:04;10.55;;;4.75;;
44137;SDS011;29800;55.942;37.314;2024-02-26T08:01:30;12.75;;;5.47;;
44137;SDS011;29800;55.942;37.314;2024-02-26T08:03:56;15.52;;;5.53;;
44137;SDS011;29800;55.942;37.314;2024-02-26T08:06:23;11.15;;;4.60;;
44137;SDS011;29800;55.942;37.314;2024-02-26T08:08:50;11.63;;;4.60;;
44137;SDS011;29800;55.942;37.314;2024-02-26T08:11:18;9.18;;;4.32;;
44137;SDS011;29800;55.942;37.314;2024-02-26T08:13:44;15.85;;;4.22;;
44137;SDS011;29800;55.942;37.314;2024-02-26T08:16:12;10.07;;;5.10;;
44137;SDS011;29800;55.942;37.314;2024-02-26T08:18:38;10.43;;;4.65;;
44137;SDS011;29800;55.942;37.314;2024-02-26T08:21:05;12.20;;;5.10;;
44137;SDS011;29800;55.942;37.314;2024-02-26T08:23:31;10.13;;;4.32;;
44137;SDS011;29800;55.942;37.314;2024-02-26T08:25:57;10.80;;;4.65;;
44137;SDS011;29800;55.942;37.314;2024-02-26T08:28:24;8.20;;;4.55;;
44137;SDS011;29800;55.942;37.314;2024-02-26T08:30:50;11.75;;;4.93;;
44137;SDS011;29800;55.942;37.314;2024-02-26T08:33:16;10.60;;;5.05;;
44137;SDS011;29800;55.942;37.314;2024-02-26T08:35:43;10.73;;;4.28;;
44137;SDS011;29800;55.942;37.314;2024-02-26T08:38:09;10.40;;;4.95;;
44137;SDS011;29800;55.942;37.314;2024-02-26T08:40:35;9.38;;;4.45;;
44137;SDS011;29800;55.942;37.314;2024-02-26T08:43:02;14.57;;;4.93;;
44137;SDS011;29800;55.942;37.314;2024-02-26T08:45:28;12.00;;;5.18;;
44137;SDS011;29800;55.942;37.314;2024-02-26T08:47:55;11.43;;;5.03;;
44137;SDS011;29800;55.942;37.314;2024-02-26T08:50:21;11.05;;;4.80;;
44137;SDS011;29800;55.942;37.314;2024-02-26T08:52:48;14.40;;;4.72;;
44137;SDS011;29800;55.942;37.314;2024-02-26T08:55:16;10.25;;;4.68;;
44137;SDS011;29800;55.942;37.314;2024-02-26T08:57:44;16.77;;;5.50;;
44137;SDS011;29800;55.942;37.314;2024-02-26T09:00:10;11.30;;;4.70;;
44137;SDS011;29800;55.942;37.314;2024-02-26T09:02:37;16.70;;;5.30;;
44137;SDS011;29800;55.942;37.314;2024-02-26T09:05:08;11.85;;;5.38;;
44137;SDS011;29800;55.942;37.314;2024-02-26T09:07:34;13.50;;;5.00;;
44137;SDS011;29800;55.942;37.314;2024-02-26T09:10:00;17.40;;;5.75;;
44137;SDS011;29800;55.942;37.314;2024-02-26T09:12:26;14.00;;;4.88;;
44137;SDS011;29800;55.942;37.314;2024-02-26T09:14:52;14.90;;;5.50;;
44137;SDS011;29800;55.942;37.314;2024-02-26T09:17:18;11.15;;;4.85;;
44137;SDS011;29800;55.942;37.314;2024-02-26T09:19:45;12.13;;;5.30;;
44137;SDS011;29800;55.942;37.314;2024-02-26T09:22:11;11.18;;;5.78;;
44137;SDS011;29800;55.942;37.314;2024-02-26T09:24:38;11.32;;;5.25;;
44137;SDS011;29800;55.942;37.314;2024-02-26T09:27:04;10.80;;;5.35;;
44137;SDS011;29800;55.942;37.314;2024-02-26T09:29:32;14.13;;;6.00;;
44137;SDS011;29800;55.942;37.314;2024-02-26T09:31:58;11.48;;;4.75;;
44137;SDS011;29800;55.942;37.314;2024-02-26T09:34:24;15.88;;;5.93;;
44137;SDS011;29800;55.942;37.314;2024-02-26T09:36:50;11.80;;;5.20;;
44137;SDS011;29800;55.942;37.314;2024-02-26T09:39:17;12.18;;;4.93;;
44137;SDS011;29800;55.942;37.314;2024-02-26T09:41:47;13.43;;;5.22;;
44137;SDS011;29800;55.942;37.314;2024-02-26T09:44:21;11.68;;;5.20;;
44137;SDS011;29800;55.942;37.314;2024-02-26T09:46:48;11.15;;;5.55;;
44137;SDS011;29800;55.942;37.314;2024-02-26T09:49:18;12.88;;;5.50;;
44137;SDS011;29800;55.942;37.314;2024-02-26T09:51:46;13.30;;;5.40;;
44137;SDS011;29800;55.942;37.314;2024-02-26T09:54:15;11.73;;;5.20;;
44137;SDS011;29800;55.942;37.314;2024-02-26T09:56:42;9.90;;;4.70;;
44137;SDS011;29800;55.942;37.314;2024-02-26T09:59:10;12.70;;;4.82;;
44137;SDS011;29800;55.942;37.314;2024-02-26T10:01:43;18.30;;;6.43;;
44137;SDS011;29800;55.942;37.314;2024-02-26T10:04:11;13.77;;;5.18;;
44137;SDS011;29800;55.942;37.314;2024-02-26T10:06:38;11.73;;;5.38;;
44137;SDS011;29800;55.942;37.314;2024-02-26T10:09:05;13.48;;;5.43;;
44137;SDS011;29800;55.942;37.314;2024-02-26T10:11:36;12.95;;;5.10;;
44137;SDS011;29800;55.942;37.314;2024-02-26T10:14:03;15.32;;;5.10;;
44137;SDS011;29800;55.942;37.314;2024-02-26T10:16:29;12.88;;;5.05;;
44137;SDS011;29800;55.942;37.314;2024-02-26T10:18:56;12.43;;;4.47;;
44137;SDS011;29800;55.942;37.314;2024-02-26T10:21:22;10.35;;;4.25;;
44137;SDS011;29800;55.942;37.314;2024-02-26T10:23:49;15.02;;;5.60;;
44137;SDS011;29800;55.942;37.314;2024-02-26T10:26:18;12.10;;;5.47;;
44137;SDS011;29800;55.942;37.314;2024-02-26T10:28:45;13.73;;;5.80;;
44137;SDS011;29800;55.942;37.314;2024-02-26T10:31:13;12.85;;;5.35;;
44137;SDS011;29800;55.942;37.314;2024-02-26T10:33:40;14.40;;;5.15;;
44137;SDS011;29800;55.942;37.314;2024-02-26T10:36:08;13.95;;;5.03;;
44137;SDS011;29800;55.942;37.314;2024-02-26T10:38:35;14.15;;;5.25;;
44137;SDS011;29800;55.942;37.314;2024-02-26T10:41:03;12.68;;;5.47;;
44137;SDS011;29800;55.942;37.314;2024-02-26T10:43:30;15.27;;;5.07;;
44137;SDS011;29800;55.942;37.314;2024-02-26T10:45:57;15.15;;;5.13;;
44137;SDS011;29800;55.942;37.314;2024-02-26T10:48:23;12.05;;;4.70;;
44137;SDS011;29800;55.942;37.314;2024-02-26T10:50:50;10.20;;;4.53;;
44137;SDS011;29800;55.942;37.314;2024-02-26T10:53:19;10.50;;;4.80;;
44137;SDS011;29800;55.942;37.314;2024-02-26T10:55:57;10.18;;;4.57;;
44137;SDS011;29800;55.942;37.314;2024-02-26T10:58:26;11.77;;;4.43;;
44137;SDS011;29800;55.942;37.314;2024-02-26T11:00:56;9.40;;;4.80;;
44137;SDS011;29800;55.942;37.314;2024-02-26T11:03:28;16.95;;;5.57;;
44137;SDS011;29800;55.942;37.314;2024-02-26T11:06:21;11.52;;;5.05;;
44137;SDS011;29800;55.942;37.314;2024-02-26T11:08:49;14.82;;;4.60;;
44137;SDS011;29800;55.942;37.314;2024-02-26T11:11:17;17.30;;;5.25;;
44137;SDS011;29800;55.942;37.314;2024-02-26T11:13:46;11.05;;;4.63;;
44137;SDS011;29800;55.942;37.314;2024-02-26T11:16:17;11.65;;;4.43;;
44137;SDS011;29800;55.942;37.314;2024-02-26T11:18:46;12.07;;;4.22;;
44137;SDS011;29800;55.942;37.314;2024-02-26T11:21:16;12.45;;;5.30;;
44137;SDS011;29800;55.942;37.314;2024-02-26T11:23:53;11.45;;;4.60;;
44137;SDS011;29800;55.942;37.314;2024-02-26T11:26:20;13.88;;;4.88;;
44137;SDS011;29800;55.942;37.314;2024-02-26T11:28:49;11.98;;;4.43;;
44137;SDS011;29800;55.942;37.314;2024-02-26T11:31:17;11.60;;;4.57;;
44137;SDS011;29800;55.942;37.314;2024-02-26T11:33:51;12.07;;;5.10;;
44137;SDS011;29800;55.942;37.314;2024-02-26T11:36:18;18.77;;;6.10;;
44137;SDS011;29800;55.942;37.314;2024-02-26T11:38:46;12.57;;;4.63;;
44137;SDS011;29800;55.942;37.314;2024-02-26T11:41:17;10.52;;;4.68;;
44137;SDS011;29800;55.942;37.314;2024-02-26T11:43:50;11.45;;;4.93;;
44137;SDS011;29800;55.942;37.314;2024-02-26T11:46:25;11.00;;;4.55;;
44137;SDS011;29800;55.942;37.314;2024-02-26T11:49:00;10.85;;;5.20;;
44137;SDS011;29800;55.942;37.314;2024-02-26T11:51:32;14.52;;;5.00;;
44137;SDS011;29800;55.942;37.314;2024-02-26T11:54:00;15.55;;;4.65;;
44137;SDS011;29800;55.942;37.314;2024-02-26T11:56:26;10.30;;;4.30;;
44137;SDS011;29800;55.942;37.314;2024-02-26T11:58:53;14.68;;;4.72;;
44137;SDS011;29800;55.942;37.314;2024-02-26T12:18:10;10.23;;;4.85;;
44137;SDS011;29800;55.942;37.314;2024-02-26T12:20:42;13.13;;;4.80;;
44137;SDS011;29800;55.942;37.314;2024-02-26T12:23:15;12.43;;;4.70;;
44137;SDS011;29800;55.942;37.314;2024-02-26T12:25:45;13.50;;;4.88;;
44137;SDS011;29800;55.942;37.314;2024-02-26T12:28:14;13.43;;;5.10;;
44137;SDS011;29800;55.942;37.314;2024-02-26T12:30:41;19.25;;;5.25;;
44137;SDS011;29800;55.942;37.314;2024-02-26T12:33:07;13.23;;;5.03;;
44137;SDS011;29800;55.942;37.314;2024-02-26T12:35:34;13.70;;;5.00;;
44137;SDS011;29800;55.942;37.314;2024-02-26T12:38:01;14.43;;;4.55;;
44137;SDS011;29800;55.942;37.314;2024-02-26T12:40:30;12.07;;;4.80;;
44137;SDS011;29800;55.942;37.314;2024-02-26T12:42:57;14.73;;;4.50;;
44137;SDS011;29800;55.942;37.314;2024-02-26T12:45:24;13.68;;;5.32;;
44137;SDS011;29800;55.942;37.314;2024-02-26T12:47:52;12.77;;;4.88;;
44137;SDS011;29800;55.942;37.314;2024-02-26T12:50:18;13.80;;;4.82;;
44137;SDS011;29800;55.942;37.314;2024-02-26T12:52:45;15.07;;;5.43;;
44137;SDS011;29800;55.942;37.314;2024-02-26T12:55:14;12.75;;;5.32;;
44137;SDS011;29800;55.942;37.314;2024-02-26T12:57:44;18.58;;;5.47;;
44137;SDS011;29800;55.942;37.314;2024-02-26T13:00:12;13.80;;;5.18;;
44137;SDS011;29800;55.942;37.314;2024-02-26T13:02:41;13.05;;;4.72;;
44137;SDS011;29800;55.942;37.314;2024-02-26T13:05:10;13.85;;;5.50;;
44137;SDS011;29800;55.942;37.314;2024-02-26T13:07:43;16.48;;;4.78;;
44137;SDS011;29800;55.942;37.314;2024-02-26T13:10:11;12.40;;;5.22;;
44137;SDS011;29800;55.942;37.314;2024-02-26T13:12:44;15.25;;;5.32;;
44137;SDS011;29800;55.942;37.314;2024-02-26T13:15:15;16.13;;;5.47;;
44137;SDS011;29800;55.942;37.314;2024-02-26T13:17:43;10.98;;;5.15;;
44137;SDS011;29800;55.942;37.314;2024-02-26T13:20:10;13.52;;;4.70;;
44137;SDS011;29800;55.942;37.314;2024-02-26T13:22:37;12.35;;;4.65;;
44137;SDS011;29800;55.942;37.314;2024-02-26T13:25:04;12.13;;;4.95;;
44137;SDS011;29800;55.942;37.314;2024-02-26T13:27:33;13.85;;;5.10;;
44137;SDS011;29800;55.942;37.314;2024-02-26T13:30:08;14.18;;;5.03;;
44137;SDS011;29800;55.942;37.314;2024-02-26T13:32:36;12.02;;;5.25;;
44137;SDS011;29800;55.942;37.314;2024-02-26T13:37:34;15.88;;;4.50;;
44137;SDS011;29800;55.942;37.314;2024-02-26T13:40:07;13.07;;;5.15;;
44137;SDS011;29800;55.942;37.314;2024-02-26T13:42:35;15.80;;;4.60;;
44137;SDS011;29800;55.942;37.314;2024-02-26T13:45:03;13.25;;;4.55;;
44137;SDS011;29800;55.942;37.314;2024-02-26T13:47:36;16.88;;;5.10;;
44137;SDS011;29800;55.942;37.314;2024-02-26T13:50:02;10.23;;;4.60;;
44137;SDS011;29800;55.942;37.314;2024-02-26T13:52:30;18.13;;;4.40;;
44137;SDS011;29800;55.942;37.314;2024-02-26T13:54:58;11.70;;;4.60;;
44137;SDS011;29800;55.942;37.314;2024-02-26T13:57:25;13.32;;;4.75;;
44137;SDS011;29800;55.942;37.314;2024-02-26T13:59:51;17.75;;;5.03;;
44137;SDS011;29800;55.942;37.314;2024-02-26T14:02:18;14.82;;;4.95;;
44137;SDS011;29800;55.942;37.314;2024-02-26T14:04:44;15.20;;;4.72;;
44137;SDS011;29800;55.942;37.314;2024-02-26T14:07:10;16.02;;;4.97;;
44137;SDS011;29800;55.942;37.314;2024-02-26T14:09:38;11.70;;;4.22;;
44137;SDS011;29800;55.942;37.314;2024-02-26T14:12:05;13.43;;;4.85;;
44137;SDS011;29800;55.942;37.314;2024-02-26T14:14:32;14.52;;;4.50;;
44137;SDS011;29800;55.942;37.314;2024-02-26T14:17:02;11.02;;;4.75;;
44137;SDS011;29800;55.942;37.314;2024-02-26T14:19:29;12.95;;;4.97;;
44137;SDS011;29800;55.942;37.314;2024-02-26T14:21:55;14.15;;;4.10;;
44137;SDS011;29800;55.942;37.314;2024-02-26T14:24:21;10.38;;;4.43;;
44137;SDS011;29800;55.942;37.314;2024-02-26T14:26:48;11.40;;;4.68;;
44137;SDS011;29800;55.942;37.314;2024-02-26T14:29:14;12.98;;;3.92;;
44137;SDS011;29800;55.942;37.314;2024-02-26T14:31:41;15.82;;;4.82;;
44137;SDS011;29800;55.942;37.314;2024-02-26T14:34:08;14.00;;;3.90;;
44137;SDS011;29800;55.942;37.314;2024-02-26T14:36:35;18.98;;;4.72;;
44137;SDS011;29800;55.942;37.314;2024-02-26T14:39:01;10.02;;;4.18;;
44137;SDS011;29800;55.942;37.314;2024-02-26T14:41:39;11.20;;;4.50;;
44137;SDS011;29800;55.942;37.314;2024-02-26T14:44:06;10.38;;;4.20;;
44137;SDS011;29800;55.942;37.314;2024-02-26T14:46:32;10.00;;;4.45;;